Time;durP1;ratioP1;P1;durP2;ratioP2;P2;SDS_P1;SDS_P2;PMS_P1;PMS_P2;Temp;Humidity;BMP_temperature;BMP_pressure;BME280_temperature;BME280_humidity;BME280_pressure;Samples;Min_cycle;Max_cycle;Signal;HPM_P1;HPM_P2
2021/08/20 00:01:41;;;;;;;3.47;2.77;;;;;;;;;;4542266;28;20033;-64
2021/08/20 00:03:52;;;;;;;4.67;3.27;;;;;;;;;;4543816;28;32761;-64
2021/08/20 00:06:02;;;;;;;3.20;2.77;;;;;;;;;;4541375;28;20572;-65
2021/08/20 00:08:12;;;;;;;3.40;2.73;;;;;;;;;;4541786;28;20040;-64
2021/08/20 00:10:23;;;;;;;3.37;2.33;;;;;;;;;;4541883;28;22812;-64
2021/08/20 00:12:34;;;;;;;3.07;2.43;;;;;;;;;;4544116;28;20445;-63
2021/08/20 00:14:44;;;;;;;3.97;2.38;;;;;;;;;;4542824;28;20126;-63
2021/08/20 00:16:55;;;;;;;3.87;2.63;;;;;;;;;;4541656;28;20110;-64
2021/08/20 00:19:05;;;;;;;3.77;2.70;;;;;;;;;;4542648;28;20041;-65
2021/08/20 00:21:16;;;;;;;2.90;2.30;;;;;;;;;;4540823;28;20040;-64
2021/08/20 00:23:26;;;;;;;3.63;2.33;;;;;;;;;;4540197;28;20040;-64
2021/08/20 00:25:37;;;;;;;3.23;2.13;;;;;;;;;;4538154;28;20079;-64
2021/08/20 00:27:48;;;;;;;2.77;2.13;;;;;;;;;;4540726;28;21151;-64
2021/08/20 00:29:58;;;;;;;2.92;2.00;;;;;;;;;;4544938;28;20040;-64
2021/08/20 00:32:08;;;;;;;3.13;2.00;;;;;;;;;;4542817;28;20043;-63
2021/08/20 00:34:19;;;;;;;3.10;2.07;;;;;;;;;;4542945;28;25154;-64
2021/08/20 00:36:30;;;;;;;;;;;;;;;;;;4540314;28;20572;-64
2021/08/20 00:38:41;;;;;;;3.33;1.80;;;;;;;;;;4524940;28;19987;-64
2021/08/20 00:40:54;;;;;;;2.10;1.70;;;;;;;;;;4540702;28;20588;-64
2021/08/20 00:43:05;;;;;;;2.60;1.88;;;;;;;;;;4541469;28;20177;-64
2021/08/20 00:45:16;;;;;;;3.67;2.30;;;;;;;;;;4541035;28;20033;-64
2021/08/20 00:47:26;;;;;;;3.47;1.90;;;;;;;;;;4540734;28;24517;-64
2021/08/20 00:49:37;;;;;;;2.17;1.87;;;;;;;;;;4526076;28;20084;-64
2021/08/20 00:51:49;;;;;;;2.78;1.85;;;;;;;;;;4541134;28;21556;-64
2021/08/20 00:53:59;;;;;;;2.80;1.80;;;;;;;;;;4524718;28;20033;-64
2021/08/20 00:56:10;;;;;;;1.93;1.73;;;;;;;;;;4542875;28;20118;-64
2021/08/20 00:58:21;;;;;;;2.53;2.08;;;;;;;;;;4541535;28;20033;-64
2021/08/20 01:00:31;;;;;;;5.00;2.00;;;;;;;;;;4539283;28;20482;-64
2021/08/20 01:02:43;;;;;;;2.70;1.90;;;;;;;;;;4557491;28;20108;-64
2021/08/20 01:04:53;;;;;;;2.28;1.83;;;;;;;;;;4541315;28;20138;-64
2021/08/20 01:07:06;;;;;;;4.53;1.98;;;;;;;;;;4539053;28;20742;-64
2021/08/20 01:09:20;;;;;;;2.55;2.03;;;;;;;;;;4541548;28;20804;-64
2021/08/20 01:11:31;;;;;;;2.83;2.13;;;;;;;;;;4542321;28;20044;-64
2021/08/20 01:13:42;;;;;;;2.47;1.90;;;;;;;;;;4540866;28;20029;-64
2021/08/20 01:15:53;;;;;;;;;;;;;;;;;;4538862;28;20098;-64
2021/08/20 01:18:03;;;;;;;3.10;1.95;;;;;;;;;;4525166;28;20483;-64
2021/08/20 01:20:14;;;;;;;2.70;1.83;;;;;;;;;;4541781;28;20033;-64
2021/08/20 01:22:25;;;;;;;2.67;1.85;;;;;;;;;;4541245;28;20150;-64
2021/08/20 01:24:36;;;;;;;3.03;2.08;;;;;;;;;;4540273;28;20041;-64
2021/08/20 01:26:48;;;;;;;;;;;;;;;;;;4527077;28;20084;-64
2021/08/20 01:29:00;;;;;;;2.38;1.70;;;;;;;;;;4542344;28;19975;-64
2021/08/20 01:31:14;;;;;;;2.65;2.10;;;;;;;;;;4541567;28;20028;-64
2021/08/20 01:33:25;;;;;;;2.90;1.63;;;;;;;;;;4525292;28;20030;-64
2021/08/20 01:35:36;;;;;;;2.40;1.90;;;;;;;;;;4542591;28;20513;-64
2021/08/20 01:37:47;;;;;;;3.28;2.00;;;;;;;;;;4522661;28;20033;-64
2021/08/20 01:39:58;;;;;;;2.57;2.00;;;;;;;;;;4523638;28;20430;-64
2021/08/20 01:42:08;;;;;;;2.37;1.90;;;;;;;;;;4539877;28;20029;-64
2021/08/20 01:44:19;;;;;;;2.37;1.80;;;;;;;;;;4541296;28;20059;-64
2021/08/20 01:46:30;;;;;;;2.53;2.10;;;;;;;;;;4539591;28;20033;-64
2021/08/20 01:48:52;;;;;;;3.40;2.47;;;;;;;;;;4540110;28;20037;-64
2021/08/20 01:51:02;;;;;;;4.72;2.53;;;;;;;;;;4541786;28;20047;-64
2021/08/20 01:53:14;;;;;;;3.07;2.00;;;;;;;;;;4520620;28;20052;-64
2021/08/20 01:55:26;;;;;;;2.60;2.10;;;;;;;;;;4525352;28;20067;-64
2021/08/20 01:57:44;;;;;;;3.17;2.23;;;;;;;;;;4539944;28;20117;-63
2021/08/20 01:59:54;;;;;;;2.95;2.28;;;;;;;;;;4544492;28;20859;-64
2021/08/20 02:02:05;;;;;;;3.67;2.22;;;;;;;;;;4539092;28;20067;-63
2021/08/20 02:04:16;;;;;;;2.93;2.10;;;;;;;;;;4543399;28;20501;-64
2021/08/20 02:06:26;;;;;;;3.47;2.50;;;;;;;;;;4541812;28;20470;-64
2021/08/20 02:08:37;;;;;;;3.47;2.00;;;;;;;;;;4538081;28;20035;-64
2021/08/20 02:10:48;;;;;;;3.08;2.30;;;;;;;;;;4541101;28;20481;-63
2021/08/20 02:12:59;;;;;;;3.73;2.50;;;;;;;;;;4541575;28;20029;-63
2021/08/20 02:15:13;;;;;;;3.22;2.42;;;;;;;;;;4541252;28;20033;-64
2021/08/20 02:17:24;;;;;;;3.47;2.50;;;;;;;;;;4540403;28;20065;-64
2021/08/20 02:19:35;;;;;;;3.95;2.50;;;;;;;;;;4539453;28;20134;-64
2021/08/20 02:21:46;;;;;;;4.32;2.70;;;;;;;;;;4541695;28;20120;-64
2021/08/20 02:24:05;;;;;;;2.92;2.30;;;;;;;;;;4554368;28;20036;-64
2021/08/20 02:26:17;;;;;;;3.47;2.17;;;;;;;;;;4524923;28;20033;-64
2021/08/20 02:28:28;;;;;;;3.43;2.30;;;;;;;;;;4539937;28;20536;-64
2021/08/20 02:30:42;;;;;;;3.15;2.50;;;;;;;;;;4526263;28;20037;-64
2021/08/20 02:32:55;;;;;;;3.08;2.45;;;;;;;;;;4538105;28;20037;-64
2021/08/20 02:35:05;;;;;;;3.40;2.70;;;;;;;;;;4522838;28;20041;-64
2021/08/20 02:37:16;;;;;;;3.43;2.70;;;;;;;;;;4540937;28;20490;-63
2021/08/20 02:39:26;;;;;;;4.53;2.93;;;;;;;;;;4542666;28;20036;-65
2021/08/20 02:41:37;;;;;;;3.80;2.50;;;;;;;;;;4540685;28;20835;-64
2021/08/20 02:43:49;;;;;;;3.67;2.50;;;;;;;;;;4540937;28;20033;-64
2021/08/20 02:46:00;;;;;;;3.60;2.65;;;;;;;;;;4539907;28;20021;-64
2021/08/20 02:48:11;;;;;;;4.00;2.40;;;;;;;;;;4537726;28;20401;-64
2021/08/20 02:50:21;;;;;;;4.72;2.63;;;;;;;;;;4523956;28;20033;-64
2021/08/20 02:52:32;;;;;;;3.80;2.60;;;;;;;;;;4523595;28;20525;-63
2021/08/20 02:54:43;;;;;;;4.20;2.90;;;;;;;;;;4538718;28;20059;-63
2021/08/20 02:56:53;;;;;;;4.37;3.00;;;;;;;;;;4539655;28;20505;-63
2021/08/20 02:59:05;;;;;;;3.65;2.78;;;;;;;;;;4537754;28;20533;-64
2021/08/20 03:01:17;;;;;;;3.90;2.85;;;;;;;;;;4540499;28;20033;-63
2021/08/20 03:03:27;;;;;;;4.13;3.00;;;;;;;;;;4523796;28;20391;-64
2021/08/20 03:05:41;;;;;;;3.20;2.60;;;;;;;;;;4521275;28;20032;-64
2021/08/20 03:07:52;;;;;;;4.10;3.00;;;;;;;;;;4527667;28;20768;-64
2021/08/20 03:10:05;;;;;;;4.43;3.10;;;;;;;;;;4539310;28;20152;-63
2021/08/20 03:12:16;;;;;;;;;;;;;;;;;;4523938;28;20123;-63
2021/08/20 03:14:46;;;;;;;4.13;2.80;;;;;;;;;;4539613;28;20675;-64
2021/08/20 03:16:57;;;;;;;3.80;2.90;;;;;;;;;;4539288;28;20029;-64
2021/08/20 03:19:08;;;;;;;5.17;3.27;;;;;;;;;;4525854;28;20025;-64
2021/08/20 03:21:22;;;;;;;4.07;2.90;;;;;;;;;;4523259;28;20029;-63
2021/08/20 03:23:39;;;;;;;4.50;2.92;;;;;;;;;;4538592;28;20021;-63
2021/08/20 03:25:51;;;;;;;4.30;2.78;;;;;;;;;;4523744;28;20029;-64
2021/08/20 03:28:06;;;;;;;4.28;3.20;;;;;;;;;;4540200;28;20044;-63
2021/08/20 03:30:24;;;;;;;4.15;3.05;;;;;;;;;;4555070;28;20037;-63
2021/08/20 03:32:42;;;;;;;3.83;3.03;;;;;;;;;;4555658;28;20144;-64
2021/08/20 03:34:54;;;;;;;4.87;3.40;;;;;;;;;;4541125;28;20493;-63
2021/08/20 03:37:05;;;;;;;4.13;3.13;;;;;;;;;;4541486;28;20033;-64
2021/08/20 03:39:26;;;;;;;4.25;3.25;;;;;;;;;;4542840;28;20037;-63
2021/08/20 03:41:37;;;;;;;5.30;3.90;;;;;;;;;;4528561;28;20048;-64
2021/08/20 03:43:53;;;;;;;3.60;2.75;;;;;;;;;;4543946;28;20029;-63
2021/08/20 03:46:09;;;;;;;3.75;2.90;;;;;;;;;;4541649;28;20033;-63
2021/08/20 03:48:21;;;;;;;4.10;2.80;;;;;;;;;;4543863;28;20056;-63
2021/08/20 03:50:32;;;;;;;3.53;2.43;;;;;;;;;;4540794;28;20072;-64
2021/08/20 03:52:42;;;;;;;4.20;3.17;;;;;;;;;;4540835;28;20045;-64
2021/08/20 03:54:53;;;;;;;3.97;3.20;;;;;;;;;;4542160;28;20053;-63
2021/08/20 03:57:06;;;;;;;3.95;3.00;;;;;;;;;;4542483;28;20103;-63
2021/08/20 03:59:18;;;;;;;;;;;;;;;;;;4528273;28;20042;-63
2021/08/20 04:01:29;;;;;;;4.32;3.30;;;;;;;;;;4543704;28;20388;-64
2021/08/20 04:03:42;;;;;;;5.15;3.47;;;;;;;;;;4544050;28;20025;-63
2021/08/20 04:06:03;;;;;;;5.10;3.45;;;;;;;;;;4546323;28;20033;-63
2021/08/20 04:08:15;;;;;;;4.70;3.40;;;;;;;;;;4543703;28;20100;-64
2021/08/20 04:10:48;;;;;;;5.15;3.78;;;;;;;;;;4531805;28;20084;-64
2021/08/20 04:13:11;;;;;;;4.15;3.33;;;;;;;;;;4541143;28;20147;-63
2021/08/20 04:15:27;;;;;;;4.55;3.58;;;;;;;;;;4540569;28;20045;-63
2021/08/20 04:17:37;;;;;;;3.80;3.27;;;;;;;;;;4526546;28;20375;-63
2021/08/20 04:19:48;;;;;;;4.70;3.53;;;;;;;;;;4547671;28;20127;-64
2021/08/20 04:22:00;;;;;;;4.47;3.33;;;;;;;;;;4543063;28;20065;-64
2021/08/20 04:24:14;;;;;;;5.05;3.88;;;;;;;;;;4528904;28;20106;-63
2021/08/20 04:26:25;;;;;;;4.25;2.95;;;;;;;;;;4524923;28;20154;-63
2021/08/20 04:28:54;;;;;;;5.90;3.38;;;;;;;;;;4531856;28;20580;-63
2021/08/20 04:31:25;;;;;;;3.45;2.85;;;;;;;;;;4540781;28;20036;-63
2021/08/20 04:34:04;;;;;;;4.25;3.35;;;;;;;;;;4542527;28;20036;-64
2021/08/20 04:36:30;;;;;;;5.40;3.45;;;;;;;;;;4542822;28;20040;-64
2021/08/20 04:39:09;;;;;;;4.82;3.63;;;;;;;;;;4547407;28;20616;-64
2021/08/20 04:41:39;;;;;;;3.65;3.20;;;;;;;;;;4538851;28;20044;-64
2021/08/20 04:44:12;;;;;;;5.80;4.35;;;;;;;;;;4540509;28;20095;-64
2021/08/20 04:46:39;;;;;;;4.18;3.33;;;;;;;;;;4541970;28;20124;-63
2021/08/20 04:48:58;;;;;;;;;;;;;;;;;;4543362;28;20998;-63
2021/08/20 04:51:34;;;;;;;5.28;4.22;;;;;;;;;;4525909;28;19920;-63
2021/08/20 04:53:59;;;;;;;5.63;4.22;;;;;;;;;;4544635;28;20095;-63
2021/08/20 04:56:28;;;;;;;5.28;4.05;;;;;;;;;;4541782;28;20089;-63
2021/08/20 04:58:38;;;;;;;5.20;4.03;;;;;;;;;;4540141;28;21024;-63
2021/08/20 05:00:49;;;;;;;4.57;3.90;;;;;;;;;;4526563;28;20276;-64
2021/08/20 05:02:59;;;;;;;5.10;4.20;;;;;;;;;;4540615;28;20086;-64
2021/08/20 05:05:10;;;;;;;5.27;4.23;;;;;;;;;;4543885;28;20037;-64
2021/08/20 05:07:21;;;;;;;5.68;4.45;;;;;;;;;;4541617;28;20037;-64
2021/08/20 05:09:32;;;;;;;7.03;4.80;;;;;;;;;;4539567;28;20037;-64
2021/08/20 05:11:43;;;;;;;5.50;4.28;;;;;;;;;;4539503;28;20041;-64
2021/08/20 05:13:53;;;;;;;6.00;4.70;;;;;;;;;;4539792;28;20446;-63
2021/08/20 05:16:07;;;;;;;6.20;4.60;;;;;;;;;;4541544;28;20052;-64
2021/08/20 05:18:18;;;;;;;4.95;4.10;;;;;;;;;;4537330;28;20032;-64
2021/08/20 05:20:29;;;;;;;5.37;4.40;;;;;;;;;;4541920;28;20486;-64
2021/08/20 05:22:48;;;;;;;5.95;4.43;;;;;;;;;;4540997;28;20033;-64
2021/08/20 05:24:58;;;;;;;6.00;4.32;;;;;;;;;;4526662;28;20041;-63
2021/08/20 05:27:09;;;;;;;5.67;4.10;;;;;;;;;;4540064;28;20025;-64
2021/08/20 05:29:19;;;;;;;6.13;4.50;;;;;;;;;;4540874;28;20655;-64
2021/08/20 05:31:30;;;;;;;5.67;4.40;;;;;;;;;;4543556;28;20031;-64
2021/08/20 05:33:40;;;;;;;5.63;4.63;;;;;;;;;;4541461;28;20401;-63
2021/08/20 05:35:50;;;;;;;6.23;4.40;;;;;;;;;;4540838;28;20047;-64
2021/08/20 05:38:02;;;;;;;6.63;4.90;;;;;;;;;;4541286;28;20041;-64
2021/08/20 05:40:13;;;;;;;5.68;4.35;;;;;;;;;;4542273;28;20562;-64
2021/08/20 05:42:23;;;;;;;6.28;4.60;;;;;;;;;;4541209;28;20107;-64
2021/08/20 05:44:34;;;;;;;6.07;4.57;;;;;;;;;;4538167;28;24068;-64
2021/08/20 05:46:44;;;;;;;6.57;4.67;;;;;;;;;;4541927;28;20485;-64
2021/08/20 05:48:55;;;;;;;5.47;4.20;;;;;;;;;;4540276;28;20083;-64
2021/08/20 05:51:05;;;;;;;5.57;4.30;;;;;;;;;;4543972;28;20103;-64
2021/08/20 05:53:16;;;;;;;6.87;4.17;;;;;;;;;;4542139;28;20516;-64
2021/08/20 05:55:26;;;;;;;6.03;4.53;;;;;;;;;;4539649;28;20062;-64
2021/08/20 05:57:37;;;;;;;5.68;4.32;;;;;;;;;;4540668;28;20115;-64
2021/08/20 05:59:48;;;;;;;6.50;4.60;;;;;;;;;;4541066;28;20041;-64
2021/08/20 06:01:58;;;;;;;6.87;4.60;;;;;;;;;;4539482;28;23590;-64
2021/08/20 06:04:09;;;;;;;6.57;4.60;;;;;;;;;;4542790;28;20068;-65
2021/08/20 06:06:22;;;;;;;6.25;4.43;;;;;;;;;;4541039;28;20033;-64
2021/08/20 06:08:33;;;;;;;5.90;4.30;;;;;;;;;;4540170;28;20056;-64
2021/08/20 06:10:47;;;;;;;5.93;4.53;;;;;;;;;;4539806;28;20162;-64
2021/08/20 06:12:58;;;;;;;6.15;4.40;;;;;;;;;;4539094;28;20040;-64
2021/08/20 06:15:09;;;;;;;6.73;4.80;;;;;;;;;;4541710;28;20090;-65
2021/08/20 06:17:19;;;;;;;7.05;4.63;;;;;;;;;;4540235;28;20047;-64
2021/08/20 06:19:30;;;;;;;6.23;4.60;;;;;;;;;;4541361;28;21105;-64
2021/08/20 06:21:40;;;;;;;6.33;4.67;;;;;;;;;;4541316;28;20090;-64
2021/08/20 06:23:51;;;;;;;6.37;4.80;;;;;;;;;;4543233;28;20029;-64
2021/08/20 06:26:01;;;;;;;5.87;4.30;;;;;;;;;;4541462;28;20049;-63
2021/08/20 06:28:12;;;;;;;6.87;5.40;;;;;;;;;;4538856;28;20124;-63
2021/08/20 06:30:22;;;;;;;6.27;4.30;;;;;;;;;;4544275;28;20792;-64
2021/08/20 06:32:33;;;;;;;7.10;4.90;;;;;;;;;;4538700;28;20038;-64
2021/08/20 06:34:43;;;;;;;7.63;4.80;;;;;;;;;;4537134;28;20037;-64
2021/08/20 06:36:54;;;;;;;7.40;5.17;;;;;;;;;;4542592;28;20118;-64
2021/08/20 06:39:04;;;;;;;6.67;4.77;;;;;;;;;;4539944;28;20044;-64
2021/08/20 06:41:15;;;;;;;7.75;5.30;;;;;;;;;;4542298;28;20033;-64
2021/08/20 06:43:34;;;;;;;7.35;5.05;;;;;;;;;;4541086;28;20041;-64
2021/08/20 06:45:45;;;;;;;6.70;4.70;;;;;;;;;;4541032;28;20037;-64
2021/08/20 06:47:56;;;;;;;6.55;4.88;;;;;;;;;;4538063;28;20037;-64
2021/08/20 06:50:07;;;;;;;6.77;4.97;;;;;;;;;;4540705;28;20041;-63
2021/08/20 06:52:17;;;;;;;7.20;5.43;;;;;;;;;;4537440;28;20032;-63
2021/08/20 06:54:28;;;;;;;7.47;5.37;;;;;;;;;;4540983;28;20115;-62
2021/08/20 06:56:38;;;;;;;7.50;5.53;;;;;;;;;;4538259;28;22767;-63
2021/08/20 06:58:49;;;;;;;7.07;5.17;;;;;;;;;;4537313;28;20231;-63
2021/08/20 07:00:59;;;;;;;7.43;5.53;;;;;;;;;;4538987;28;20033;-63
2021/08/20 07:03:10;;;;;;;7.33;5.53;;;;;;;;;;4541870;28;20123;-63
2021/08/20 07:05:20;;;;;;;7.13;5.23;;;;;;;;;;4538633;28;20794;-63
2021/08/20 07:07:33;;;;;;;9.50;6.20;;;;;;;;;;4538098;28;20039;-63
2021/08/20 07:09:44;;;;;;;8.20;5.82;;;;;;;;;;4538007;28;20039;-64
2021/08/20 07:11:54;;;;;;;9.00;6.20;;;;;;;;;;4537819;28;20573;-63
2021/08/20 07:14:05;;;;;;;8.33;6.20;;;;;;;;;;4540203;28;20040;-63
2021/08/20 07:16:15;;;;;;;7.97;6.17;;;;;;;;;;4543156;28;20773;-63
2021/08/20 07:18:26;;;;;;;9.00;6.77;;;;;;;;;;4542956;28;20021;-63
2021/08/20 07:20:36;;;;;;;8.40;6.27;;;;;;;;;;4543177;28;20036;-63
2021/08/20 07:22:46;;;;;;;8.30;6.30;;;;;;;;;;4542902;28;20025;-63
2021/08/20 07:24:57;;;;;;;8.63;6.53;;;;;;;;;;4542079;28;20038;-63
2021/08/20 07:27:07;;;;;;;8.80;6.40;;;;;;;;;;4542484;28;20492;-63
2021/08/20 07:29:18;;;;;;;9.10;6.57;;;;;;;;;;4541756;28;20065;-63
2021/08/20 07:31:28;;;;;;;8.77;6.80;;;;;;;;;;4543160;28;20025;-63
2021/08/20 07:33:39;;;;;;;9.03;6.80;;;;;;;;;;4541911;28;20545;-62
2021/08/20 07:35:49;;;;;;;8.93;6.07;;;;;;;;;;4543874;28;20610;-63
2021/08/20 07:38:00;;;;;;;9.50;5.97;;;;;;;;;;4546324;28;20029;-63
2021/08/20 07:40:10;;;;;;;8.90;6.20;;;;;;;;;;4543534;28;20491;-63
2021/08/20 07:42:21;;;;;;;8.93;6.20;;;;;;;;;;4543475;28;20482;-63
2021/08/20 07:44:32;;;;;;;8.60;6.40;;;;;;;;;;4542523;28;20124;-63
2021/08/20 07:46:42;;;;;;;7.90;6.10;;;;;;;;;;4542150;28;20037;-64
2021/08/20 07:48:53;;;;;;;8.43;5.83;;;;;;;;;;4542976;28;20109;-64
2021/08/20 07:51:03;;;;;;;8.30;6.20;;;;;;;;;;4544908;28;20040;-64
2021/08/20 07:53:16;;;;;;;9.10;6.43;;;;;;;;;;4543244;28;20029;-64
2021/08/20 07:55:26;;;;;;;8.35;6.30;;;;;;;;;;4541577;28;20037;-64
2021/08/20 07:58:03;;;;;;;9.30;6.30;;;;;;;;;;4542010;28;20033;-64
2021/08/20 08:00:14;;;;;;;8.50;6.00;;;;;;;;;;4538934;28;20823;-64
2021/08/20 08:02:24;;;;;;;7.38;5.60;;;;;;;;;;4542941;28;20025;-64
2021/08/20 08:04:34;;;;;;;8.37;6.20;;;;;;;;;;4542486;28;24490;-64
2021/08/20 08:06:45;;;;;;;7.60;5.60;;;;;;;;;;4524576;28;24358;-65
2021/08/20 08:08:55;;;;;;;7.60;5.70;;;;;;;;;;4541913;28;20565;-65
2021/08/20 08:11:07;;;;;;;8.10;5.50;;;;;;;;;;4541920;28;25036;-64
2021/08/20 08:13:17;;;;;;;8.15;6.13;;;;;;;;;;4540492;28;20032;-64
2021/08/20 08:15:27;;;;;;;7.07;5.60;;;;;;;;;;4540402;28;20041;-64
2021/08/20 08:17:38;;;;;;;7.63;6.07;;;;;;;;;;4541397;28;20033;-64
2021/08/20 08:19:49;;;;;;;8.43;5.93;;;;;;;;;;4543494;28;20039;-65
2021/08/20 08:21:59;;;;;;;7.93;5.87;;;;;;;;;;4542992;28;20756;-65
2021/08/20 08:24:10;;;;;;;6.50;4.73;;;;;;;;;;4539502;28;20025;-64
2021/08/20 08:26:20;;;;;;;7.37;4.40;;;;;;;;;;4508373;28;20594;-64
2021/08/20 08:28:31;;;;;;;5.03;4.07;;;;;;;;;;4543292;28;20057;-65
2021/08/20 08:30:42;;;;;;;6.37;4.63;;;;;;;;;;4540773;28;20037;-64
2021/08/20 08:32:53;;;;;;;7.03;4.80;;;;;;;;;;4538334;28;20032;-64
2021/08/20 08:35:04;;;;;;;5.70;4.43;;;;;;;;;;4541663;28;20588;-64
2021/08/20 08:37:15;;;;;;;5.90;4.32;;;;;;;;;;4540398;28;20048;-65
2021/08/20 08:39:25;;;;;;;6.77;4.90;;;;;;;;;;4542789;28;20198;-64
2021/08/20 08:41:35;;;;;;;6.57;4.60;;;;;;;;;;4539468;28;20822;-64
2021/08/20 08:43:46;;;;;;;7.87;5.00;;;;;;;;;;4541004;28;25151;-64
2021/08/20 08:46:02;;;;;;;7.23;5.30;;;;;;;;;;4542594;28;20039;-64
2021/08/20 08:48:14;;;;;;;6.28;4.63;;;;;;;;;;4541237;28;20531;-64
2021/08/20 08:50:24;;;;;;;6.95;5.15;;;;;;;;;;4539421;28;20033;-64
2021/08/20 08:52:35;;;;;;;7.60;4.83;;;;;;;;;;4545426;28;20021;-64
2021/08/20 08:54:46;;;;;;;7.10;4.60;;;;;;;;;;4540740;28;20049;-64
2021/08/20 08:56:56;;;;;;;5.80;4.50;;;;;;;;;;4542260;28;20033;-64
2021/08/20 08:59:07;;;;;;;5.27;3.97;;;;;;;;;;4541615;28;20064;-63
2021/08/20 09:01:32;;;;;;;6.77;4.77;;;;;;;;;;4526098;28;20056;-64
2021/08/20 09:03:42;;;;;;;6.60;4.68;;;;;;;;;;4541672;28;20041;-64
2021/08/20 09:05:54;;;;;;;6.40;4.27;;;;;;;;;;4542471;28;20033;-64
2021/08/20 09:08:13;;;;;;;6.20;4.75;;;;;;;;;;4541242;28;20584;-64
2021/08/20 09:10:25;;;;;;;6.40;4.53;;;;;;;;;;4541204;28;20033;-64
2021/08/20 09:12:36;;;;;;;6.88;4.80;;;;;;;;;;4542609;28;20036;-64
2021/08/20 09:14:57;;;;;;;5.27;4.10;;;;;;;;;;4541009;28;20044;-64
2021/08/20 09:17:09;;;;;;;6.03;4.67;;;;;;;;;;4542360;28;20664;-64
2021/08/20 09:19:21;;;;;;;6.68;4.97;;;;;;;;;;4540804;28;20611;-64
2021/08/20 09:21:32;;;;;;;6.53;4.82;;;;;;;;;;4540687;28;20043;-64
2021/08/20 09:23:42;;;;;;;5.83;4.07;;;;;;;;;;4541725;28;20078;-64
2021/08/20 09:25:54;;;;;;;6.17;4.40;;;;;;;;;;4540314;28;24093;-64
2021/08/20 09:28:12;;;;;;;5.45;3.80;;;;;;;;;;4538440;28;20028;-64
2021/08/20 09:30:22;;;;;;;5.05;3.67;;;;;;;;;;4541610;28;21558;-64
2021/08/20 09:32:42;;;;;;;4.70;3.57;;;;;;;;;;4538712;28;20045;-64
2021/08/20 09:34:54;;;;;;;4.13;3.38;;;;;;;;;;4540277;28;20111;-64
2021/08/20 09:37:12;;;;;;;6.07;2.03;;;;;;;;;;4539925;28;20135;-64
2021/08/20 09:39:26;;;;;;;4.57;2.10;;;;;;;;;;4536797;28;20136;-65
2021/08/20 09:41:42;;;;;;;4.00;1.80;;;;;;;;;;4542396;28;20036;-64
2021/08/20 09:44:00;;;;;;;3.13;1.90;;;;;;;;;;4540226;28;20693;-64
2021/08/20 09:46:20;;;;;;;3.40;1.98;;;;;;;;;;4541578;28;20070;-64
2021/08/20 09:48:43;;;;;;;4.28;2.00;;;;;;;;;;4501091;28;20581;-64
2021/08/20 09:50:53;;;;;;;2.95;1.73;;;;;;;;;;4538494;28;20129;-64
2021/08/20 09:53:11;;;;;;;4.77;2.07;;;;;;;;;;4540915;28;20039;-64
2021/08/20 09:55:36;;;;;;;4.30;2.00;;;;;;;;;;4538505;28;20115;-64
2021/08/20 09:57:46;;;;;;;5.85;2.20;;;;;;;;;;4510473;28;20073;-66
2021/08/20 09:59:57;;;;;;;2.70;1.93;;;;;;;;;;4538806;28;26271;-65
2021/08/20 10:02:10;;;;;;;4.32;2.40;;;;;;;;;;4541963;28;20596;-65
2021/08/20 10:04:22;;;;;;;4.00;2.13;;;;;;;;;;4543677;28;20064;-65
2021/08/20 10:06:35;;;;;;;5.65;2.00;;;;;;;;;;4539974;28;20603;-65
2021/08/20 10:08:46;;;;;;;2.30;1.60;;;;;;;;;;4541729;28;20040;-65
2021/08/20 10:10:57;;;;;;;4.63;1.90;;;;;;;;;;4538935;28;20044;-65
2021/08/20 10:13:09;;;;;;;4.25;2.22;;;;;;;;;;4540284;28;20039;-65
2021/08/20 10:15:20;;;;;;;4.57;1.80;;;;;;;;;;4539931;28;20056;-65
2021/08/20 10:17:31;;;;;;;3.50;1.60;;;;;;;;;;4542051;28;20769;-65
2021/08/20 10:19:42;;;;;;;3.90;1.70;;;;;;;;;;4542890;28;20037;-65
2021/08/20 10:21:52;;;;;;;4.53;1.83;;;;;;;;;;4540717;28;20032;-65
2021/08/20 10:24:04;;;;;;;7.60;2.30;;;;;;;;;;4522893;28;20075;-65
2021/08/20 10:26:15;;;;;;;4.60;2.13;;;;;;;;;;4537409;28;21032;-65
2021/08/20 10:28:26;;;;;;;6.35;2.17;;;;;;;;;;4538553;28;20044;-65
2021/08/20 10:30:37;;;;;;;3.95;2.38;;;;;;;;;;4540999;28;20273;-65
2021/08/20 10:33:32;;;;;;;5.67;2.43;;;;;;;;;;4541379;28;20047;-65
2021/08/20 10:35:51;;;;;;;7.25;2.35;;;;;;;;;;4506154;28;20057;-65
2021/08/20 10:38:40;;;;;;;6.43;2.10;;;;;;;;;;4540493;28;20036;-65
2021/08/20 10:41:19;;;;;;;13.48;3.50;;;;;;;;;;4541689;28;20025;-65
2021/08/20 10:44:06;;;;;;;10.55;3.17;;;;;;;;;;4537737;28;20025;-65
2021/08/20 10:46:36;;;;;;;15.80;3.28;;;;;;;;;;4539840;28;20033;-65
2021/08/20 10:49:12;;;;;;;12.25;3.17;;;;;;;;;;4539005;28;20044;-64
2021/08/20 10:51:52;;;;;;;13.32;3.17;;;;;;;;;;4539539;28;21247;-65
2021/08/20 10:54:02;;;;;;;9.50;3.35;;;;;;;;;;4535865;28;20049;-64
2021/08/20 10:56:31;;;;;;;24.30;6.53;;;;;;;;;;4539172;28;20041;-65
2021/08/20 10:58:41;;;;;;;31.00;7.85;;;;;;;;;;4540691;28;20068;-65
2021/08/20 11:00:53;;;;;;;27.90;7.97;;;;;;;;;;4542264;28;20064;-65
2021/08/20 11:03:06;;;;;;;30.08;9.25;;;;;;;;;;4539126;28;20090;-65
2021/08/20 11:05:18;;;;;;;30.52;9.52;;;;;;;;;;4541392;28;20121;-65
2021/08/20 11:07:38;;;;;;;30.33;9.23;;;;;;;;;;4541287;28;20125;-65
2021/08/20 11:09:48;;;;;;;21.67;8.63;;;;;;;;;;4536239;28;20060;-64
2021/08/20 11:12:00;;;;;;;27.37;8.60;;;;;;;;;;4538993;28;20044;-65
2021/08/20 11:14:29;;;;;;;24.55;8.40;;;;;;;;;;4538849;28;20029;-65
2021/08/20 11:16:39;;;;;;;26.23;7.97;;;;;;;;;;4540314;28;20152;-65
2021/08/20 11:18:50;;;;;;;28.13;8.13;;;;;;;;;;4541098;28;20156;-65
2021/08/20 11:21:00;;;;;;;21.77;7.97;;;;;;;;;;4539903;28;20060;-65
2021/08/20 11:23:11;;;;;;;18.57;7.27;;;;;;;;;;4539993;28;20267;-65
2021/08/20 11:25:23;;;;;;;18.70;7.43;;;;;;;;;;4539541;28;20584;-64
2021/08/20 11:27:33;;;;;;;18.27;6.78;;;;;;;;;;4539176;28;20120;-65
2021/08/20 11:29:44;;;;;;;22.57;7.30;;;;;;;;;;4538412;28;20478;-65
2021/08/20 11:32:04;;;;;;;20.13;7.28;;;;;;;;;;4539306;28;20236;-65
2021/08/20 11:34:15;;;;;;;19.38;6.68;;;;;;;;;;4540118;28;20619;-64
2021/08/20 11:36:25;;;;;;;16.15;6.32;;;;;;;;;;4539412;28;20049;-65
2021/08/20 11:38:45;;;;;;;19.10;6.50;;;;;;;;;;4540187;28;20115;-65
2021/08/20 11:41:12;;;;;;;20.05;6.75;;;;;;;;;;4522175;28;20375;-64
2021/08/20 11:43:23;;;;;;;16.30;6.22;;;;;;;;;;4536458;28;20138;-65
2021/08/20 11:45:34;;;;;;;16.50;5.95;;;;;;;;;;4539423;28;20180;-65
2021/08/20 11:47:44;;;;;;;16.50;6.80;;;;;;;;;;4536547;28;20410;-65
2021/08/20 11:50:06;;;;;;;16.03;6.10;;;;;;;;;;4540840;28;20033;-64
2021/08/20 11:52:17;;;;;;;18.20;6.32;;;;;;;;;;4539055;28;20225;-64
2021/08/20 11:54:36;;;;;;;17.37;6.57;;;;;;;;;;4538817;28;20497;-65
2021/08/20 11:56:53;;;;;;;17.30;6.47;;;;;;;;;;4538908;28;21039;-65
2021/08/20 11:59:09;;;;;;;13.68;6.57;;;;;;;;;;4539565;28;20687;-65
2021/08/20 12:01:32;;;;;;;16.65;6.55;;;;;;;;;;4507149;28;20045;-64
2021/08/20 12:03:53;;;;;;;16.55;6.35;;;;;;;;;;4543948;28;20766;-64
2021/08/20 12:06:11;;;;;;;13.88;5.90;;;;;;;;;;4544301;28;20041;-65
2021/08/20 12:08:21;;;;;;;13.25;5.10;;;;;;;;;;4543233;28;20041;-65
2021/08/20 12:10:32;;;;;;;15.37;5.73;;;;;;;;;;4541948;28;20557;-65
2021/08/20 12:12:44;;;;;;;14.73;6.10;;;;;;;;;;4541900;28;20033;-65
2021/08/20 12:14:54;;;;;;;14.52;6.28;;;;;;;;;;4539747;28;20507;-65
2021/08/20 12:17:10;;;;;;;13.03;5.27;;;;;;;;;;4541931;28;20036;-65
2021/08/20 12:19:26;;;;;;;13.95;5.30;;;;;;;;;;4542605;28;20041;-65
2021/08/20 12:21:36;;;;;;;16.20;5.72;;;;;;;;;;4540775;28;20733;-65
2021/08/20 12:24:01;;;;;;;15.20;6.43;;;;;;;;;;4541458;28;20086;-65
2021/08/20 12:26:17;;;;;;;6.15;4.32;;;;;;;;;;4542220;28;20045;-65
2021/08/20 12:28:39;;;;;;;7.10;4.95;;;;;;;;;;4542257;28;20043;-64
2021/08/20 12:30:49;;;;;;;6.32;4.60;;;;;;;;;;4543331;28;20136;-64
2021/08/20 12:33:00;;;;;;;6.30;4.27;;;;;;;;;;4539606;28;20140;-64
2021/08/20 12:35:18;;;;;;;5.93;4.55;;;;;;;;;;4525480;28;20076;-65
2021/08/20 12:37:29;;;;;;;5.80;4.03;;;;;;;;;;4542239;28;20084;-65
2021/08/20 12:39:43;;;;;;;6.68;4.53;;;;;;;;;;4540504;28;20047;-64
2021/08/20 12:41:53;;;;;;;6.30;4.47;;;;;;;;;;4539222;28;20041;-64
2021/08/20 12:44:08;;;;;;;6.67;4.53;;;;;;;;;;4542492;28;20402;-65
2021/08/20 12:46:19;;;;;;;7.10;4.90;;;;;;;;;;4539879;28;20133;-65
2021/08/20 12:48:29;;;;;;;7.10;5.00;;;;;;;;;;4540459;28;20133;-65
2021/08/20 12:50:39;;;;;;;7.23;4.90;;;;;;;;;;4541720;28;20048;-64
2021/08/20 12:53:00;;;;;;;7.07;4.70;;;;;;;;;;4540690;28;20033;-65
2021/08/20 12:55:33;;;;;;;9.05;5.45;;;;;;;;;;4528901;28;20045;-64
2021/08/20 12:57:48;;;;;;;9.05;5.47;;;;;;;;;;4538595;28;20075;-64
2021/08/20 13:00:01;;;;;;;7.13;4.70;;;;;;;;;;4556513;28;20087;-65
2021/08/20 13:02:12;;;;;;;7.10;4.32;;;;;;;;;;4539795;28;20041;-65
2021/08/20 13:04:22;;;;;;;7.03;5.03;;;;;;;;;;4540266;28;20473;-65
2021/08/20 13:06:32;;;;;;;6.77;4.97;;;;;;;;;;4540684;28;20032;-65
2021/08/20 13:08:43;;;;;;;7.70;5.27;;;;;;;;;;4540706;28;20033;-65
2021/08/20 13:10:55;;;;;;;7.43;4.73;;;;;;;;;;4541049;28;20738;-65
2021/08/20 13:13:05;;;;;;;7.82;5.15;;;;;;;;;;4526265;28;20041;-65
2021/08/20 13:15:16;;;;;;;7.67;4.83;;;;;;;;;;4540992;28;23994;-65
2021/08/20 13:17:26;;;;;;;6.70;5.00;;;;;;;;;;4542584;28;20076;-64
2021/08/20 13:19:37;;;;;;;7.00;4.43;;;;;;;;;;4541635;28;20037;-64
2021/08/20 13:21:47;;;;;;;7.43;4.90;;;;;;;;;;4539231;28;20031;-65